createdAt,value
2018-03-29T00:03:28.132Z,12.67
2018-03-29T00:09:18.729Z,14.2
2018-03-29T00:15:09.386Z,12.9
2018-03-29T00:21:00.075Z,13.4
2018-03-29T00:26:50.698Z,13.18
2018-03-29T00:32:41.380Z,12.75
2018-03-29T00:38:32.051Z,13.36
2018-03-29T00:44:22.696Z,11.34
2018-03-29T00:50:13.355Z,12.4
2018-03-29T00:56:04.041Z,11.46
2018-03-29T01:01:54.681Z,12.51
2018-03-29T01:07:45.338Z,11.14
2018-03-29T01:13:35.987Z,11.67
2018-03-29T01:19:26.647Z,9.83
2018-03-29T01:25:17.331Z,10.75
2018-03-29T01:31:07.965Z,11.61
2018-03-29T01:36:58.659Z,11.84
2018-03-29T01:42:49.293Z,10.88
2018-03-29T01:48:39.953Z,12.17
2018-03-29T01:54:30.617Z,11.96
2018-03-29T02:00:21.301Z,12.31
2018-03-29T02:06:11.998Z,12.39
2018-03-29T02:12:02.602Z,12.42
2018-03-29T02:17:53.294Z,12.46
2018-03-29T02:23:43.952Z,11.8
2018-03-29T02:29:34.565Z,10.67
2018-03-29T02:35:25.246Z,10.92
2018-03-29T02:41:15.958Z,11.05
2018-03-29T02:47:06.619Z,10.59
2018-03-29T02:52:57.206Z,10.16
2018-03-29T02:58:47.863Z,9.6
2018-03-29T03:04:38.576Z,9.54
2018-03-29T03:10:29.190Z,9.86
2018-03-29T03:16:19.879Z,8.66
2018-03-29T03:22:10.501Z,8.23
2018-03-29T03:28:01.182Z,8.63
2018-03-29T03:33:51.841Z,8.79
2018-03-29T03:39:42.529Z,8.71
2018-03-29T03:45:33.137Z,8.6
2018-03-29T03:51:23.792Z,8.24
2018-03-29T03:57:14.489Z,8.19
2018-03-29T04:03:05.119Z,8.24
2018-03-29T04:08:55.762Z,7.31
2018-03-29T04:14:46.420Z,7.12
2018-03-29T04:20:37.089Z,6.73
2018-03-29T04:26:27.769Z,6.78
2018-03-29T04:32:18.406Z,6.45
2018-03-29T04:38:09.068Z,6.74
2018-03-29T04:43:59.739Z,6.97
2018-03-29T04:49:50.398Z,7.54
2018-03-29T04:55:41.031Z,7.2
2018-03-29T05:01:31.688Z,6.83
2018-03-29T05:07:22.367Z,4.78
2018-03-29T05:13:13.146Z,2.96
2018-03-29T05:19:03.663Z,3.41
2018-03-29T05:24:54.320Z,3.76
2018-03-29T05:30:44.960Z,3.04
2018-03-29T05:36:35.647Z,2.55
2018-03-29T05:42:26.284Z,3.15
2018-03-29T05:48:16.985Z,2.73
2018-03-29T05:54:07.617Z,2.9
2018-03-29T05:59:58.236Z,3.06
2018-03-29T06:05:48.905Z,3.3
2018-03-29T06:11:39.566Z,3.68
2018-03-29T06:17:30.269Z,4.79
2018-03-29T06:23:20.894Z,4.53
2018-03-29T06:29:11.533Z,3.98
2018-03-29T06:35:02.226Z,4.74
2018-03-29T06:40:52.867Z,4.26
2018-03-29T06:46:43.524Z,5.28
2018-03-29T06:52:34.171Z,6.13
2018-03-29T06:58:24.833Z,8.27
2018-03-29T07:04:15.483Z,9.31
2018-03-29T07:10:06.144Z,22.12
2018-03-29T07:15:56.795Z,11.23
2018-03-29T07:21:47.499Z,6.76
2018-03-29T07:27:38.139Z,6.43
2018-03-29T07:33:28.770Z,7.31
2018-03-29T07:39:19.450Z,5.84
2018-03-29T07:45:10.103Z,8.24
2018-03-29T07:51:00.758Z,10.89
2018-03-29T07:56:51.457Z,9.15
2018-03-29T08:02:42.252Z,11.01
2018-03-29T08:08:32.785Z,5.55
2018-03-29T08:14:23.440Z,4.53
2018-03-29T08:20:14.117Z,3.81
2018-03-29T08:26:04.776Z,4.1
2018-03-29T08:31:55.444Z,4.46
2018-03-29T08:37:46.201Z,5.1
2018-03-29T08:43:36.786Z,9.49
2018-03-29T08:49:27.452Z,7.47
2018-03-29T08:55:18.135Z,6.87
2018-03-29T09:01:08.861Z,5.62
2018-03-29T09:06:59.542Z,5.89
2018-03-29T09:12:50.174Z,5.58
2018-03-29T09:18:40.835Z,5.07
2018-03-29T09:24:31.519Z,4.4
2018-03-29T09:30:22.199Z,4
2018-03-29T09:36:12.907Z,5.49
2018-03-29T09:42:03.580Z,3.89
2018-03-29T09:47:54.254Z,3.83
2018-03-29T09:53:44.919Z,3.86
2018-03-29T09:59:35.633Z,5.22
2018-03-29T10:05:26.304Z,4.87
2018-03-29T10:11:17.070Z,5.96
2018-03-29T10:17:07.668Z,8.2
2018-03-29T10:22:58.382Z,5.3
2018-03-29T10:28:49.033Z,6.57
2018-03-29T10:34:39.804Z,6.85
2018-03-29T10:40:30.427Z,6.87
2018-03-29T10:46:21.149Z,6.2
2018-03-29T10:52:11.821Z,6.34
2018-03-29T10:58:02.566Z,7.38
2018-03-29T11:03:53.218Z,6.69
2018-03-29T11:09:43.906Z,3.16
2018-03-29T11:15:34.593Z,1.98
2018-03-29T11:21:25.273Z,2.97
2018-03-29T11:27:15.993Z,2.03
2018-03-29T11:33:06.695Z,1.87
2018-03-29T11:38:57.361Z,1.92
2018-03-29T11:44:48.066Z,1.97
2018-03-29T11:50:38.752Z,1.83
2018-03-29T11:56:29.449Z,1.64
2018-03-29T12:02:20.170Z,1.76
2018-03-29T12:08:10.884Z,2.01
2018-03-29T12:14:01.514Z,1.77
2018-03-29T12:19:52.239Z,1.9
2018-03-29T12:25:42.885Z,1.89
2018-03-29T12:31:33.571Z,1.76
2018-03-29T12:37:24.306Z,1.81
2018-03-29T12:43:14.942Z,2.06
2018-03-29T12:49:05.701Z,2.37
2018-03-29T12:54:56.319Z,2.21
2018-03-29T13:00:47.045Z,2.86
2018-03-29T13:06:37.709Z,2.73
2018-03-29T13:12:28.431Z,3.59
2018-03-29T13:18:19.131Z,2.52
2018-03-29T13:24:09.804Z,2.85
2018-03-29T13:30:00.442Z,2.33
2018-03-29T13:35:51.114Z,2.96
2018-03-29T13:41:41.795Z,2.43
2018-03-29T13:47:32.527Z,2.46
2018-03-29T13:53:23.238Z,3.45
2018-03-29T13:59:14.009Z,2.36
2018-03-29T14:05:04.739Z,2.34
2018-03-29T14:10:55.372Z,3.79
2018-03-29T14:16:46.165Z,2.78
2018-03-29T14:22:36.832Z,1.89
2018-03-29T14:28:27.538Z,2.8
2018-03-29T14:34:18.237Z,2.61
2018-03-29T14:40:08.971Z,3.43
2018-03-29T14:45:59.680Z,2.4
2018-03-29T14:51:50.411Z,1.7
2018-03-29T14:57:41.132Z,2.17
2018-03-29T15:03:31.786Z,2.19
2018-03-29T15:09:22.529Z,2.09
2018-03-29T15:15:13.251Z,1.55
2018-03-29T15:21:04.019Z,1.99
2018-03-29T15:26:54.838Z,1.75
2018-03-29T15:32:45.591Z,2.69
2018-03-29T15:38:36.269Z,2.07
2018-03-29T15:44:26.996Z,1.96
2018-03-29T15:50:17.632Z,2.44
2018-03-29T15:56:08.354Z,2.54
2018-03-29T16:01:59.093Z,2.32
2018-03-29T16:07:49.768Z,2.46
2018-03-29T16:13:40.504Z,2.69
2018-03-29T16:19:31.164Z,1.79
2018-03-29T16:25:21.863Z,2.82
2018-03-29T16:31:12.581Z,1.29
2018-03-29T16:37:03.253Z,1.48
2018-03-29T16:42:53.940Z,3.05
2018-03-29T16:48:44.605Z,3.05
2018-03-29T16:54:35.311Z,2.95
2018-03-29T17:00:25.987Z,1.84
2018-03-29T17:06:16.675Z,2.35
2018-03-29T17:12:07.362Z,2.12
2018-03-29T17:17:58.080Z,1.86
2018-03-29T17:23:48.784Z,2.45
2018-03-29T17:29:39.428Z,1.79
2018-03-29T17:35:30.172Z,2.05
2018-03-29T17:41:20.818Z,1.85
2018-03-29T17:47:11.509Z,1.78
2018-03-29T17:53:02.160Z,2.26
2018-03-29T17:58:52.837Z,2.33
2018-03-29T18:04:43.532Z,2.1
2018-03-29T18:10:34.244Z,2.67
2018-03-29T18:16:24.917Z,4.87
2018-03-29T18:22:15.585Z,6.76
2018-03-29T18:28:06.292Z,5.26
2018-03-29T18:33:56.941Z,5.25
2018-03-29T18:39:47.639Z,4.13
2018-03-29T18:45:38.285Z,3.54
2018-03-29T18:51:28.987Z,3.44
2018-03-29T18:57:19.661Z,4.14
2018-03-29T19:03:10.327Z,4.93
2018-03-29T19:09:01.062Z,3.67
2018-03-29T19:14:51.730Z,3.56
2018-03-29T19:20:42.382Z,3.7
2018-03-29T19:26:33.064Z,3.42
2018-03-29T19:32:23.766Z,3.42
2018-03-29T19:38:14.412Z,3.72
2018-03-29T19:44:05.035Z,3.66
2018-03-29T19:49:55.750Z,4
2018-03-29T19:55:46.410Z,4.62
2018-03-29T20:01:37.098Z,4.58
2018-03-29T20:07:27.724Z,4.92
2018-03-29T20:13:18.423Z,5.86
2018-03-29T20:19:09.080Z,6.36
2018-03-29T20:24:59.773Z,6.79
2018-03-29T20:30:50.423Z,6.51
2018-03-29T20:36:41.121Z,6.85
2018-03-29T20:42:31.772Z,6.75
2018-03-29T20:48:22.414Z,6.99
2018-03-29T20:54:13.094Z,6.41
2018-03-29T21:00:03.759Z,6.54
2018-03-29T21:05:54.423Z,6.84
2018-03-29T21:11:45.078Z,7.57
2018-03-29T21:17:35.740Z,7.25
2018-03-29T21:23:26.462Z,7.63
2018-03-29T21:29:17.074Z,8.73
2018-03-29T21:35:07.743Z,8.1
2018-03-29T21:40:58.390Z,7.47
2018-03-29T21:46:49.095Z,5.39
2018-03-29T21:52:39.756Z,7.39
2018-03-29T21:58:30.437Z,6.7
2018-03-29T22:04:21.050Z,6
2018-03-29T22:10:11.741Z,4.96
2018-03-29T22:16:02.352Z,4.92
2018-03-29T22:21:53.024Z,3.25
2018-03-29T22:27:43.735Z,2.61
2018-03-29T22:33:34.423Z,2.84
2018-03-29T22:39:25.068Z,2.59
2018-03-29T22:45:15.687Z,2.55
2018-03-29T22:51:06.368Z,4.93
2018-03-29T22:56:57.053Z,4.12
2018-03-29T23:02:47.713Z,3.22
2018-03-29T23:08:38.358Z,2.7
2018-03-29T23:14:29.019Z,3.34
2018-03-29T23:20:19.701Z,3.53
2018-03-29T23:26:10.417Z,4.03
2018-03-29T23:32:01.059Z,3.56
2018-03-29T23:37:51.784Z,3.32
2018-03-29T23:43:42.398Z,2.6
2018-03-29T23:49:33.038Z,2.33
2018-03-29T23:55:23.710Z,3.4
